Station Historical Data
Daily Summary for April 13, 2017 Units:  English    Metric   Both
« Previous Day
Next Day »
Daily Weekly Monthly Yearly Custom
  High: Low: Average:
Temperature: 53.8 °F 28.5 °F 42.5 °F
Dew Point: 34.7 °F 24.6 °F 29.7 °F
Humidity: 90% 41% 63%
Wind Speed: 7.0mph 0.0mph 1.2mph
Wind Gust: 9.0mph - -
Wind- - SW
Pressure: 30.55 in 30.39 in -
Precipitation: 0.00 in    
Historical Graphs
 
 
Tabular Data for April 13, 2017
Time Temperature Dew Point Pressure Wind Wind Speed Wind Gust Humidity Rainfall Rate (Hourly)
00:04 38.3 °F 33.3 °F 30.44 in WNW 2.0 mph 4.0 mph 82% 0.00 in
00:09 38.2 °F 33.2 °F 30.44 in West 3.0 mph 6.0 mph 82% 0.00 in
00:14 38.4 °F 33.1 °F 30.44 in West 2.0 mph 5.0 mph 81% 0.00 in
00:19 38.5 °F 32.6 °F 30.44 in WNW 2.0 mph 5.0 mph 79% 0.00 in
00:24 38.6 °F 32.3 °F 30.44 in NW 5.0 mph 6.0 mph 78% 0.00 in
00:29 38.7 °F 32.1 °F 30.44 in WNW 2.0 mph 6.0 mph 77% 0.00 in
00:34 38.7 °F 31.8 °F 30.45 in NW 3.0 mph 6.0 mph 76% 0.00 in
00:39 38.6 °F 31.4 °F 30.45 in NW 3.0 mph 7.0 mph 75% 0.00 in
00:44 38.5 °F 31.3 °F 30.45 in NW 3.0 mph 7.0 mph 75% 0.00 in
00:49 38.2 °F 30.6 °F 30.45 in NW 3.0 mph 6.0 mph 74% 0.00 in
00:54 38.2 °F 30.6 °F 30.45 in NW 3.0 mph 5.0 mph 74% 0.00 in
00:59 38.0 °F 30.1 °F 30.45 in NW 2.0 mph 5.0 mph 73% 0.00 in
01:04 37.7 °F 30.2 °F 30.45 in NW 2.0 mph 6.0 mph 74% 0.00 in
01:09 37.6 °F 30.1 °F 30.45 in NW 2.0 mph 6.0 mph 74% 0.00 in
01:14 37.5 °F 30.0 °F 30.45 in WNW 2.0 mph 5.0 mph 74% 0.00 in
01:19 37.2 °F 29.7 °F 30.45 in NW 1.0 mph 5.0 mph 74% 0.00 in
01:24 37.0 °F 29.5 °F 30.45 in Calm   2.0 mph 74% 0.00 in
01:29 36.6 °F 29.4 °F 30.45 in Calm     75% 0.00 in
01:34 36.2 °F 29.0 °F 30.45 in NW 1.0 mph 2.0 mph 75% 0.00 in
01:39 36.2 °F 29.4 °F 30.45 in NW 1.0 mph 3.0 mph 76% 0.00 in
01:44 36.1 °F 29.3 °F 30.45 in NW 1.0 mph 3.0 mph 76% 0.00 in
01:49 36.0 °F 29.2 °F 30.44 in Calm   3.0 mph 76% 0.00 in
01:54 35.7 °F 28.9 °F 30.44 in Calm   2.0 mph 76% 0.00 in
01:59 35.2 °F 28.7 °F 30.44 in Calm   1.0 mph 77% 0.00 in
02:04 34.6 °F 28.4 °F 30.44 in Calm     78% 0.00 in
02:09 34.3 °F 28.2 °F 30.44 in Calm     78% 0.00 in
02:14 34.0 °F 28.2 °F 30.44 in Calm     79% 0.00 in
02:19 33.7 °F 27.9 °F 30.44 in Calm     79% 0.00 in
02:24 33.6 °F 28.1 °F 30.44 in Calm     80% 0.00 in
02:29 33.5 °F 28.0 °F 30.45 in Calm     80% 0.00 in
02:34 33.3 °F 28.1 °F 30.44 in Calm     81% 0.00 in
02:39 33.0 °F 27.8 °F 30.44 in Calm     81% 0.00 in
02:44 32.7 °F 27.8 °F 30.45 in Calm     82% 0.00 in
02:49 32.5 °F 27.6 °F 30.45 in Calm     82% 0.00 in
02:54 32.4 °F 27.5 °F 30.45 in Calm     82% 0.00 in
02:59 32.3 °F 27.7 °F 30.45 in Calm     83% 0.00 in
03:04 32.4 °F 27.8 °F 30.45 in Calm     83% 0.00 in
03:09 32.3 °F 27.7 °F 30.45 in Calm     83% 0.00 in
03:14 32.3 °F 27.7 °F 30.45 in Calm     83% 0.00 in
03:19 32.3 °F 27.7 °F 30.45 in Calm     83% 0.00 in
03:24 32.2 °F 27.6 °F 30.46 in Calm     83% 0.00 in
03:29 32.1 °F 27.5 °F 30.45 in Calm     83% 0.00 in
03:34 32.1 °F 27.5 °F 30.46 in NW 2.0 mph 2.0 mph 83% 0.00 in
03:39 32.0 °F 27.4 °F 30.46 in Calm   2.0 mph 83% 0.00 in
03:44 31.8 °F 27.2 °F 30.46 in Calm     83% 0.00 in
03:49 31.7 °F 27.1 °F 30.46 in Calm     83% 0.00 in
03:54 31.5 °F 26.9 °F 30.46 in Calm     83% 0.00 in
03:59 31.4 °F 26.8 °F 30.46 in Calm     83% 0.00 in
04:04 31.3 °F 26.7 °F 30.46 in Calm     83% 0.00 in
04:09 31.3 °F 26.7 °F 30.46 in Calm     83% 0.00 in
04:14 31.1 °F 26.5 °F 30.47 in Calm     83% 0.00 in
04:19 31.0 °F 26.4 °F 30.46 in Calm     83% 0.00 in
04:24 30.9 °F 26.3 °F 30.46 in Calm     83% 0.00 in
04:29 30.8 °F 26.2 °F 30.46 in Calm     83% 0.00 in
04:34 30.7 °F 26.1 °F 30.47 in Calm     83% 0.00 in
04:39 30.6 °F 26.1 °F 30.47 in Calm     83% 0.00 in
04:44 30.6 °F 26.1 °F 30.47 in Calm     83% 0.00 in
04:49 30.4 °F 25.9 °F 30.47 in Calm     83% 0.00 in
04:54 30.4 °F 25.9 °F 30.47 in Calm     83% 0.00 in
04:59 30.4 °F 26.1 °F 30.47 in Calm     84% 0.00 in
05:04 30.3 °F 26.0 °F 30.47 in Calm     84% 0.00 in
05:09 30.2 °F 25.9 °F 30.47 in Calm     84% 0.00 in
05:14 30.1 °F 25.8 °F 30.47 in Calm     84% 0.00 in
05:19 30.1 °F 25.8 °F 30.47 in Calm     84% 0.00 in
05:24 29.9 °F 25.7 °F 30.47 in Calm     84% 0.00 in
05:29 29.8 °F 25.6 °F 30.47 in Calm     84% 0.00 in
05:34 29.7 °F 25.5 °F 30.47 in Calm     84% 0.00 in
05:39 29.5 °F 25.3 °F 30.47 in Calm     84% 0.00 in
05:44 29.4 °F 25.2 °F 30.47 in Calm     84% 0.00 in
05:49 29.3 °F 25.1 °F 30.47 in Calm     84% 0.00 in
05:54 29.2 °F 25.0 °F 30.47 in Calm     84% 0.00 in
05:59 29.2 °F 25.0 °F 30.47 in Calm     84% 0.00 in
06:04 29.1 °F 24.9 °F 30.47 in Calm     84% 0.00 in
06:09 29.1 °F 25.2 °F 30.47 in Calm     85% 0.00 in
06:14 29.1 °F 25.2 °F 30.47 in Calm     85% 0.00 in
06:19 29.0 °F 25.1 °F 30.48 in Calm     85% 0.00 in
06:24 29.0 °F 25.1 °F 30.48 in Calm     85% 0.00 in
06:29 28.9 °F 25.0 °F 30.48 in Calm     85% 0.00 in
06:34 28.8 °F 24.9 °F 30.48 in Calm     85% 0.00 in
06:39 28.7 °F 24.8 °F 30.48 in Calm     85% 0.00 in
06:44 28.7 °F 24.8 °F 30.48 in Calm     85% 0.00 in
06:49 28.5 °F 24.6 °F 30.48 in Calm     85% 0.00 in
06:54 28.5 °F 24.6 °F 30.49 in Calm     85% 0.00 in
06:59 28.5 °F 24.6 °F 30.49 in Calm     85% 0.00 in
07:04 28.5 °F 24.6 °F 30.48 in Calm     85% 0.00 in
07:09 28.5 °F 24.8 °F 30.48 in Calm     86% 0.00 in
07:14 28.6 °F 24.9 °F 30.48 in Calm     86% 0.00 in
07:19 28.7 °F 25.0 °F 30.48 in Calm     86% 0.00 in
07:24 28.9 °F 25.5 °F 30.49 in Calm     87% 0.00 in
07:29 29.2 °F 25.8 °F 30.49 in Calm     87% 0.00 in
07:34 29.4 °F 26.0 °F 30.49 in Calm     87% 0.00 in
07:39 29.7 °F 26.6 °F 30.50 in Calm     88% 0.00 in
07:44 30.2 °F 27.1 °F 30.50 in Calm     88% 0.00 in
07:49 30.6 °F 27.5 °F 30.51 in Calm     88% 0.00 in
07:54 31.2 °F 28.3 °F 30.51 in Calm     89% 0.00 in
07:59 33.0 °F 30.4 °F 30.51 in Calm     90% 0.00 in
08:04 35.4 °F 31.6 °F 30.50 in Calm     86% 0.00 in
08:09 36.6 °F 31.9 °F 30.51 in Calm     83% 0.00 in
08:14 37.2 °F 31.3 °F 30.51 in Calm     79% 0.00 in
08:19 37.8 °F 31.6 °F 30.51 in Calm     78% 0.00 in
08:24 38.1 °F 31.8 °F 30.52 in Calm     78% 0.00 in
08:29 38.5 °F 31.9 °F 30.52 in Calm     77% 0.00 in
08:34 38.9 °F 31.6 °F 30.52 in Calm     75% 0.00 in
08:39 39.5 °F 31.9 °F 30.52 in Calm     74% 0.00 in
08:44 39.5 °F 32.2 °F 30.52 in Calm     75% 0.00 in
08:49 40.2 °F 32.2 °F 30.52 in NW 1.0 mph 2.0 mph 73% 0.00 in
08:54 40.8 °F 32.8 °F 30.52 in Calm   2.0 mph 73% 0.00 in
08:59 41.1 °F 32.1 °F 30.52 in Calm     70% 0.00 in
09:04 42.1 °F 33.4 °F 30.52 in Calm   4.0 mph 71% 0.00 in
09:09 42.7 °F 33.2 °F 30.52 in WNW 1.0 mph 4.0 mph 69% 0.00 in
09:14 43.1 °F 32.5 °F 30.52 in NW 1.0 mph 3.0 mph 66% 0.00 in
09:19 42.4 °F 32.9 °F 30.52 in Calm   2.0 mph 69% 0.00 in
09:24 43.0 °F 33.9 °F 30.52 in NW 1.0 mph 4.0 mph 70% 0.00 in
09:29 43.6 °F 33.7 °F 30.52 in WSW 2.0 mph 3.0 mph 68% 0.00 in
09:34 42.8 °F 32.2 °F 30.53 in WSW 2.0 mph 3.0 mph 66% 0.00 in
09:39 43.5 °F 32.9 °F 30.53 in West 5.0 mph 5.0 mph 66% 0.00 in
09:44 43.5 °F 32.1 °F 30.53 in WSW 1.0 mph 5.0 mph 64% 0.00 in
09:49 43.9 °F 33.6 °F 30.54 in West 3.0 mph 4.0 mph 67% 0.00 in
09:54 44.2 °F 32.8 °F 30.55 in SW 3.0 mph 7.0 mph 64% 0.00 in
09:59 44.6 °F 32.4 °F 30.55 in WSW 3.0 mph 7.0 mph 62% 0.00 in
10:04 45.2 °F 32.5 °F 30.55 in WSW 3.0 mph 5.0 mph 61% 0.00 in
10:09 45.4 °F 33.5 °F 30.55 in WSW 3.0 mph 5.0 mph 63% 0.00 in
10:14 46.0 °F 34.1 °F 30.54 in SW 4.0 mph 7.0 mph 63% 0.00 in
10:19 45.8 °F 33.5 °F 30.54 in SSW 5.0 mph 6.0 mph 62% 0.00 in
10:24 45.9 °F 33.2 °F 30.54 in South 2.0 mph 6.0 mph 61% 0.00 in
10:29 46.0 °F 33.3 °F 30.54 in SSW 4.0 mph 6.0 mph 61% 0.00 in
10:34 46.3 °F 33.2 °F 30.53 in SW 4.0 mph 7.0 mph 60% 0.00 in
10:39 46.0 °F 32.0 °F 30.54 in SW 4.0 mph 8.0 mph 58% 0.00 in
10:44 45.5 °F 32.4 °F 30.54 in SW 4.0 mph 8.0 mph 60% 0.00 in
10:49 45.2 °F 32.5 °F 30.54 in SW 1.0 mph 7.0 mph 61% 0.00 in
10:54 45.4 °F 32.7 °F 30.54 in SSW 7.0 mph 8.0 mph 61% 0.00 in
10:59 45.4 °F 32.7 °F 30.54 in WSW 4.0 mph 8.0 mph 61% 0.00 in
11:04 45.0 °F 31.9 °F 30.54 in WSW 3.0 mph 8.0 mph 60% 0.00 in
11:09 45.2 °F 31.7 °F 30.54 in West 3.0 mph 9.0 mph 59% 0.00 in
11:14 45.4 °F 31.9 °F 30.54 in West 2.0 mph 9.0 mph 59% 0.00 in
11:19 45.1 °F 32.4 °F 30.53 in WSW 5.0 mph 7.0 mph 61% 0.00 in
11:24 45.6 °F 33.3 °F 30.53 in SW 3.0 mph 8.0 mph 62% 0.00 in
11:29 45.8 °F 31.9 °F 30.53 in WSW 4.0 mph 8.0 mph 58% 0.00 in
11:34 46.6 °F 32.6 °F 30.53 in West 3.0 mph 7.0 mph 58% 0.00 in
11:39 46.9 °F 31.6 °F 30.53 in SW 2.0 mph 7.0 mph 55% 0.00 in
11:44 47.1 °F 33.5 °F 30.53 in SW 3.0 mph 7.0 mph 59% 0.00 in
11:49 46.9 °F 32.0 °F 30.52 in SW 2.0 mph 5.0 mph 56% 0.00 in
11:54 47.2 °F 31.8 °F 30.52 in South 1.0 mph 5.0 mph 55% 0.00 in
11:59 48.2 °F 32.8 °F 30.52 in NW 2.0 mph 4.0 mph 55% 0.00 in
12:04 48.6 °F 33.1 °F 30.52 in NW 3.0 mph 5.0 mph 55% 0.00 in
12:09 48.5 °F 32.1 °F 30.52 in WSW 1.0 mph 4.0 mph 53% 0.00 in
12:14 49.4 °F 33.9 °F 30.52 in NW 3.0 mph 5.0 mph 55% 0.00 in
12:19 49.3 °F 32.9 °F 30.52 in West 2.0 mph 4.0 mph 53% 0.00 in
12:24 49.3 °F 33.8 °F 30.52 in SSW 1.0 mph 4.0 mph 55% 0.00 in
12:29 49.5 °F 33.1 °F 30.52 in WSW 2.0 mph 4.0 mph 53% 0.00 in
12:34 50.1 °F 32.7 °F 30.52 in WNW 3.0 mph 7.0 mph 51% 0.00 in
12:39 49.0 °F 33.1 °F 30.52 in WNW 2.0 mph 7.0 mph 54% 0.00 in
12:44 48.7 °F 30.9 °F 30.52 in SW 1.0 mph 6.0 mph 50% 0.00 in
12:49 49.3 °F 30.4 °F 30.52 in West 2.0 mph 6.0 mph 48% 0.00 in
12:54 49.4 °F 32.0 °F 30.51 in NW 2.0 mph 2.0 mph 51% 0.00 in
12:59 50.5 °F 32.5 °F 30.51 in NW 2.0 mph 4.0 mph 50% 0.00 in
13:04 50.4 °F 31.4 °F 30.51 in NW 2.0 mph 7.0 mph 48% 0.00 in
13:09 50.4 °F 32.4 °F 30.51 in WNW 1.0 mph 5.0 mph 50% 0.00 in
13:14 49.9 °F 32.0 °F 30.51 in SW 3.0 mph 4.0 mph 50% 0.00 in
13:19 50.1 °F 32.7 °F 30.50 in NW 2.0 mph 6.0 mph 51% 0.00 in
13:24 49.6 °F 30.7 °F 30.50 in NNE 2.0 mph 5.0 mph 48% 0.00 in
13:29 49.5 °F 31.1 °F 30.50 in North 2.0 mph 5.0 mph 49% 0.00 in
13:34 50.2 °F 33.2 °F 30.50 in NW 2.0 mph 6.0 mph 52% 0.00 in
13:39 49.7 °F 31.3 °F 30.50 in WNW 2.0 mph 6.0 mph 49% 0.00 in
13:44 49.9 °F 31.0 °F 30.50 in NNW 3.0 mph 7.0 mph 48% 0.00 in
13:49 49.6 °F 31.7 °F 30.49 in NW 1.0 mph 4.0 mph 50% 0.00 in
13:54 50.3 °F 33.8 °F 30.49 in NW 2.0 mph 5.0 mph 53% 0.00 in
13:59 49.9 °F 31.0 °F 30.49 in WNW 2.0 mph 5.0 mph 48% 0.00 in
14:04 50.4 °F 32.9 °F 30.49 in West 2.0 mph 5.0 mph 51% 0.00 in
14:09 50.4 °F 31.9 °F 30.49 in WNW 1.0 mph 5.0 mph 49% 0.00 in
14:14 49.5 °F 30.6 °F 30.49 in SSW 5.0 mph 5.0 mph 48% 0.00 in
14:19 50.7 °F 32.7 °F 30.49 in NW 2.0 mph 6.0 mph 50% 0.00 in
14:24 52.0 °F 32.4 °F 30.49 in WNW 3.0 mph 6.0 mph 47% 0.00 in
14:29 51.2 °F 31.1 °F 30.49 in ENE 1.0 mph 5.0 mph 46% 0.00 in
14:34 50.6 °F 30.0 °F 30.49 in East 1.0 mph 5.0 mph 45% 0.00 in
14:39 50.5 °F 31.0 °F 30.48 in West 2.0 mph 5.0 mph 47% 0.00 in
14:44 49.9 °F 33.0 °F 30.48 in South 2.0 mph 8.0 mph 52% 0.00 in
14:49 49.4 °F 32.0 °F 30.48 in SW 2.0 mph 4.0 mph 51% 0.00 in
14:54 50.4 °F 34.4 °F 30.47 in SW 2.0 mph 6.0 mph 54% 0.00 in
14:59 50.5 °F 33.0 °F 30.47 in SW 3.0 mph 8.0 mph 51% 0.00 in
15:04 50.3 °F 33.3 °F 30.47 in SW 3.0 mph 8.0 mph 52% 0.00 in
15:09 49.9 °F 32.5 °F 30.47 in SW 3.0 mph 7.0 mph 51% 0.00 in
15:14 49.3 °F 31.4 °F 30.47 in WSW 2.0 mph 6.0 mph 50% 0.00 in
15:19 49.8 °F 31.9 °F 30.47 in SW 2.0 mph 5.0 mph 50% 0.00 in
15:24 50.5 °F 33.0 °F 30.47 in South 2.0 mph 6.0 mph 51% 0.00 in
15:29 50.1 °F 32.2 °F 30.46 in SSW 4.0 mph 7.0 mph 50% 0.00 in
15:34 49.9 °F 31.0 °F 30.46 in WSW 1.0 mph 9.0 mph 48% 0.00 in
15:39 50.9 °F 33.4 °F 30.46 in SSW 2.0 mph 6.0 mph 51% 0.00 in
15:44 50.8 °F 32.3 °F 30.46 in SW 1.0 mph 4.0 mph 49% 0.00 in
15:49 50.5 °F 32.0 °F 30.45 in Calm   5.0 mph 49% 0.00 in
15:54 50.6 °F 32.1 °F 30.45 in SSW 2.0 mph 5.0 mph 49% 0.00 in
15:59 52.0 °F 33.9 °F 30.45 in SSW 3.0 mph 7.0 mph 50% 0.00 in
16:04 52.2 °F 33.1 °F 30.44 in SW 3.0 mph 7.0 mph 48% 0.00 in
16:09 52.3 °F 33.2 °F 30.44 in SSW 3.0 mph 6.0 mph 48% 0.00 in
16:14 52.8 °F 34.7 °F 30.45 in SSW 3.0 mph 7.0 mph 50% 0.00 in
16:19 53.8 °F 33.5 °F 30.44 in SSW 3.0 mph 8.0 mph 46% 0.00 in
16:24 52.9 °F 31.6 °F 30.44 in SSW 3.0 mph 8.0 mph 44% 0.00 in
16:29 52.8 °F 33.6 °F 30.44 in South 2.0 mph 7.0 mph 48% 0.00 in
16:34 52.5 °F 32.3 °F 30.44 in South 1.0 mph 6.0 mph 46% 0.00 in
16:39 52.8 °F 32.6 °F 30.44 in South 5.0 mph 6.0 mph 46% 0.00 in
16:44 52.1 °F 32.5 °F 30.44 in South 3.0 mph 6.0 mph 47% 0.00 in
16:49 52.7 °F 31.9 °F 30.43 in South 2.0 mph 6.0 mph 45% 0.00 in
16:54 52.9 °F 32.7 °F 30.43 in South 3.0 mph 7.0 mph 46% 0.00 in
16:59 53.4 °F 33.1 °F 30.43 in South 3.0 mph 7.0 mph 46% 0.00 in
17:04 53.3 °F 32.5 °F 30.43 in SSW 2.0 mph 7.0 mph 45% 0.00 in
17:09 52.8 °F 32.6 °F 30.43 in SSW 2.0 mph 6.0 mph 46% 0.00 in
17:14 52.7 °F 32.5 °F 30.43 in SW 2.0 mph 5.0 mph 46% 0.00 in
17:19 52.5 °F 32.3 °F 30.43 in West 3.0 mph 5.0 mph 46% 0.00 in
17:24 52.8 °F 32.6 °F 30.42 in SW 1.0 mph 5.0 mph 46% 0.00 in
17:29 53.2 °F 32.4 °F 30.42 in SSW 1.0 mph 6.0 mph 45% 0.00 in
17:34 52.9 °F 32.1 °F 30.42 in South 2.0 mph 6.0 mph 45% 0.00 in
17:39 53.1 °F 32.3 °F 30.42 in SSW 3.0 mph 5.0 mph 45% 0.00 in
17:44 52.8 °F 31.5 °F 30.42 in SSW 3.0 mph 5.0 mph 44% 0.00 in
17:49 52.5 °F 31.8 °F 30.42 in Calm   3.0 mph 45% 0.00 in
17:54 52.4 °F 30.5 °F 30.41 in Calm   3.0 mph 43% 0.00 in
17:59 52.5 °F 30.0 °F 30.41 in NW 1.0 mph 3.0 mph 42% 0.00 in
18:04 52.3 °F 30.4 °F 30.41 in Calm   3.0 mph 43% 0.00 in
18:09 51.9 °F 29.5 °F 30.41 in SW 1.0 mph 3.0 mph 42% 0.00 in
18:14 52.3 °F 32.1 °F 30.41 in NE 3.0 mph 4.0 mph 46% 0.00 in
18:19 52.1 °F 30.8 °F 30.41 in Calm   4.0 mph 44% 0.00 in
18:24 51.9 °F 30.6 °F 30.41 in NE 1.0 mph 4.0 mph 44% 0.00 in
18:29 51.9 °F 30.1 °F 30.41 in Calm   2.0 mph 43% 0.00 in
18:34 52.2 °F 29.8 °F 30.40 in Calm   2.0 mph 42% 0.00 in
18:39 52.1 °F 29.7 °F 30.40 in SE 1.0 mph 3.0 mph 42% 0.00 in
18:44 51.9 °F 30.6 °F 30.40 in SSW 3.0 mph 3.0 mph 44% 0.00 in
18:49 51.9 °F 29.5 °F 30.40 in SSW 1.0 mph 4.0 mph 42% 0.00 in
18:54 52.1 °F 30.3 °F 30.40 in SSW 2.0 mph 4.0 mph 43% 0.00 in
18:59 52.0 °F 29.6 °F 30.40 in South 1.0 mph 4.0 mph 42% 0.00 in
19:04 51.7 °F 28.7 °F 30.40 in Calm   3.0 mph 41% 0.00 in
19:09 51.6 °F 29.2 °F 30.40 in Calm     42% 0.00 in
19:14 51.6 °F 28.6 °F 30.41 in Calm     41% 0.00 in
19:19 51.3 °F 29.0 °F 30.41 in Calm     42% 0.00 in
19:24 50.7 °F 29.0 °F 30.41 in Calm     43% 0.00 in
19:29 50.7 °F 28.4 °F 30.42 in North 1.0 mph 3.0 mph 42% 0.00 in
19:34 50.9 °F 28.6 °F 30.41 in North 2.0 mph 3.0 mph 42% 0.00 in
19:39 50.9 °F 28.6 °F 30.41 in Calm   2.0 mph 42% 0.00 in
19:44 50.7 °F 28.4 °F 30.41 in Calm   2.0 mph 42% 0.00 in
19:49 50.5 °F 28.2 °F 30.41 in NE 3.0 mph 4.0 mph 42% 0.00 in
19:54 50.3 °F 28.1 °F 30.40 in NE 1.0 mph 4.0 mph 42% 0.00 in
19:59 50.3 °F 27.5 °F 30.41 in NE 2.0 mph 4.0 mph 41% 0.00 in
20:04 50.2 °F 28.0 °F 30.41 in NE 2.0 mph 3.0 mph 42% 0.00 in
20:09 49.9 °F 27.1 °F 30.40 in NE 2.0 mph 3.0 mph 41% 0.00 in
20:14 50.0 °F 27.2 °F 30.40 in NE 2.0 mph 3.0 mph 41% 0.00 in
20:19 49.6 °F 26.8 °F 30.40 in East 3.0 mph 3.0 mph 41% 0.00 in
20:24 49.6 °F 26.8 °F 30.40 in East 1.0 mph 3.0 mph 41% 0.00 in
20:29 49.1 °F 27.0 °F 30.40 in Calm   2.0 mph 42% 0.00 in
20:34 48.7 °F 27.2 °F 30.40 in Calm   2.0 mph 43% 0.00 in
20:39 48.7 °F 27.2 °F 30.40 in Calm   2.0 mph 43% 0.00 in
20:44 48.6 °F 27.6 °F 30.39 in Calm   3.0 mph 44% 0.00 in
20:49 48.4 °F 26.9 °F 30.39 in East 2.0 mph 3.0 mph 43% 0.00 in
20:54 48.3 °F 26.8 °F 30.39 in East 1.0 mph 5.0 mph 43% 0.00 in
20:59 48.3 °F 26.2 °F 30.40 in East 1.0 mph 5.0 mph 42% 0.00 in
21:04 48.0 °F 26.0 °F 30.40 in East 1.0 mph 3.0 mph 42% 0.00 in
21:09 47.8 °F 25.8 °F 30.40 in Calm   2.0 mph 42% 0.00 in
21:14 47.7 °F 25.7 °F 30.40 in Calm     42% 0.00 in
21:19 47.3 °F 25.9 °F 30.40 in Calm     43% 0.00 in
21:24 47.0 °F 26.2 °F 30.40 in Calm     44% 0.00 in
21:29 46.9 °F 25.5 °F 30.40 in Calm     43% 0.00 in
21:34 46.7 °F 25.9 °F 30.40 in Calm     44% 0.00 in
21:39 46.4 °F 25.6 °F 30.40 in Calm     44% 0.00 in
21:44 45.7 °F 26.1 °F 30.40 in Calm     46% 0.00 in
21:49 45.1 °F 26.6 °F 30.41 in Calm     48% 0.00 in
21:54 44.6 °F 26.6 °F 30.41 in Calm     49% 0.00 in
21:59 44.1 °F 26.6 °F 30.41 in Calm     50% 0.00 in
22:04 43.8 °F 27.3 °F 30.41 in Calm     52% 0.00 in
22:09 43.5 °F 27.5 °F 30.41 in Calm     53% 0.00 in
22:14 43.2 °F 27.7 °F 30.41 in Calm     54% 0.00 in
22:19 42.8 °F 27.7 °F 30.41 in Calm     55% 0.00 in
22:24 42.5 °F 27.9 °F 30.41 in Calm     56% 0.00 in
22:29 43.1 °F 27.1 °F 30.40 in Calm     53% 0.00 in
22:34 43.1 °F 27.1 °F 30.40 in Calm     53% 0.00 in
22:39 42.8 °F 27.7 °F 30.41 in Calm     55% 0.00 in
22:44 42.3 °F 27.7 °F 30.41 in Calm     56% 0.00 in
22:49 41.8 °F 28.1 °F 30.41 in Calm     58% 0.00 in
22:54 41.8 °F 28.1 °F 30.41 in Calm     58% 0.00 in
22:59 41.7 °F 28.4 °F 30.41 in Calm     59% 0.00 in
23:04 41.3 °F 28.4 °F 30.41 in Calm     60% 0.00 in
23:09 41.0 °F 28.6 °F 30.41 in Calm     61% 0.00 in
23:14 40.9 °F 28.9 °F 30.41 in Calm     62% 0.00 in
23:19 40.9 °F 28.9 °F 30.41 in Calm     62% 0.00 in
23:24 40.7 °F 28.7 °F 30.41 in Calm     62% 0.00 in
23:29 40.8 °F 28.4 °F 30.41 in Calm     61% 0.00 in
23:34 40.9 °F 28.9 °F 30.42 in Calm     62% 0.00 in
23:39 40.9 °F 29.3 °F 30.42 in Calm     63% 0.00 in
23:44 40.7 °F 29.1 °F 30.42 in Calm     63% 0.00 in
23:49 40.4 °F 29.2 °F 30.42 in Calm     64% 0.00 in
23:54 40.3 °F 29.1 °F 30.42 in Calm     64% 0.00 in
23:59 40.4 °F 29.6 °F 30.42 in Calm     65% 0.00 in
Buffalo, New York, USA
Compliments of Weather Underground - 2.5 mb